createdAt,value
2023-07-31T00:00:24.291Z,0.00
2023-07-31T00:01:24.216Z,0.00
2023-07-31T00:02:24.175Z,0.00
2023-07-31T00:03:24.227Z,0.00
2023-07-31T00:04:24.137Z,0.00
2023-07-31T00:05:24.151Z,0.00
2023-07-31T00:06:24.125Z,0.00
2023-07-31T00:07:24.060Z,0.00
2023-07-31T00:08:24.097Z,0.00
2023-07-31T00:09:24.066Z,0.00
2023-07-31T00:10:24.079Z,0.00
2023-07-31T00:11:24.027Z,0.00
2023-07-31T00:12:24.037Z,0.00
2023-07-31T00:13:24.042Z,0.00
2023-07-31T00:14:24.006Z,0.00
2023-07-31T00:15:24.048Z,0.00
2023-07-31T00:16:25.033Z,0.00
2023-07-31T00:17:24.039Z,0.00
2023-07-31T00:18:23.999Z,0.00
2023-07-31T00:19:24.041Z,0.00
2023-07-31T00:20:23.936Z,0.00
2023-07-31T00:21:24.010Z,0.00
2023-07-31T00:22:23.942Z,0.00
2023-07-31T00:23:23.972Z,0.00
2023-07-31T00:24:23.910Z,0.00
2023-07-31T00:25:23.869Z,0.00
2023-07-31T00:26:23.854Z,0.00
2023-07-31T00:27:23.884Z,0.00
2023-07-31T00:28:23.991Z,0.00
2023-07-31T00:29:23.836Z,0.00
2023-07-31T00:30:23.835Z,0.00
2023-07-31T00:31:23.851Z,0.00
2023-07-31T00:32:23.921Z,0.00
2023-07-31T00:33:23.791Z,0.00
2023-07-31T00:34:23.814Z,0.00
2023-07-31T00:35:23.793Z,0.00
2023-07-31T00:36:23.850Z,0.00
2023-07-31T00:37:23.766Z,0.00
2023-07-31T00:38:23.793Z,0.00
2023-07-31T00:39:23.806Z,0.00
2023-07-31T00:40:23.735Z,0.00
2023-07-31T00:41:23.710Z,0.00
2023-07-31T00:42:23.779Z,0.00
2023-07-31T00:43:23.691Z,0.00
2023-07-31T00:44:23.684Z,0.00
2023-07-31T00:45:23.695Z,0.00
2023-07-31T00:46:23.710Z,0.00
2023-07-31T00:47:23.661Z,0.00
2023-07-31T00:48:23.725Z,0.00
2023-07-31T00:49:23.671Z,0.00
2023-07-31T00:50:23.631Z,0.00
2023-07-31T00:51:23.633Z,0.00
2023-07-31T00:52:23.677Z,0.00
2023-07-31T00:53:23.656Z,0.00
2023-07-31T00:54:23.660Z,0.00
2023-07-31T00:55:23.621Z,0.00
2023-07-31T00:56:23.594Z,0.00
2023-07-31T00:57:23.572Z,0.00
2023-07-31T00:58:23.550Z,0.00
2023-07-31T00:59:23.600Z,0.00
2023-07-31T01:00:23.555Z,0.00
2023-07-31T01:01:23.660Z,0.00
2023-07-31T01:02:23.571Z,0.00
2023-07-31T01:03:23.571Z,0.00
2023-07-31T01:04:23.447Z,0.00
2023-07-31T01:05:23.523Z,0.00
2023-07-31T01:06:23.465Z,0.00
2023-07-31T01:07:23.466Z,0.00
2023-07-31T01:08:23.476Z,0.00
2023-07-31T01:09:23.431Z,0.00
2023-07-31T01:10:23.469Z,0.00
2023-07-31T01:11:23.401Z,0.00
2023-07-31T01:12:23.419Z,0.00
2023-07-31T01:13:23.398Z,0.00
2023-07-31T01:14:23.374Z,0.00
2023-07-31T01:15:23.439Z,0.00
2023-07-31T01:16:23.439Z,0.00
2023-07-31T01:17:23.374Z,0.00
2023-07-31T01:18:23.367Z,0.00
2023-07-31T01:19:23.348Z,0.00
2023-07-31T01:20:23.360Z,0.00
2023-07-31T01:21:23.347Z,0.00
2023-07-31T01:22:23.321Z,0.00
2023-07-31T01:23:23.279Z,0.00
2023-07-31T01:24:23.308Z,0.00
2023-07-31T01:25:23.365Z,0.00
2023-07-31T01:26:23.259Z,0.00
2023-07-31T01:27:23.242Z,0.00
2023-07-31T01:28:23.234Z,0.00
2023-07-31T01:29:23.221Z,0.00
2023-07-31T01:30:23.184Z,0.00
2023-07-31T01:31:23.316Z,0.00
2023-07-31T01:32:23.230Z,0.00
2023-07-31T01:33:23.205Z,0.00
2023-07-31T01:34:23.166Z,0.00
2023-07-31T01:35:23.146Z,0.00
2023-07-31T01:36:23.163Z,0.00
2023-07-31T01:37:23.155Z,0.00
2023-07-31T01:38:23.150Z,0.00
2023-07-31T01:39:23.121Z,0.00
2023-07-31T01:40:23.119Z,0.00
2023-07-31T01:41:23.241Z,0.00
2023-07-31T01:42:23.078Z,0.00
2023-07-31T01:43:23.134Z,0.00
2023-07-31T01:44:23.047Z,0.00
2023-07-31T01:45:23.159Z,0.00
2023-07-31T01:46:23.104Z,0.00
2023-07-31T01:47:23.049Z,0.00
2023-07-31T01:48:23.009Z,0.00
2023-07-31T01:49:23.038Z,0.00
2023-07-31T01:50:23.048Z,0.00
2023-07-31T01:51:23.015Z,0.00
2023-07-31T01:52:23.002Z,0.00
2023-07-31T01:53:22.969Z,0.00
2023-07-31T01:54:23.008Z,0.00
2023-07-31T01:55:22.968Z,0.00
2023-07-31T01:56:22.928Z,0.00
2023-07-31T01:57:22.968Z,0.00
2023-07-31T01:58:22.914Z,0.00
2023-07-31T01:59:22.883Z,0.00
2023-07-31T02:00:22.943Z,0.00
2023-07-31T02:01:23.028Z,0.00
2023-07-31T02:02:22.849Z,0.00
2023-07-31T02:03:23.062Z,0.00
2023-07-31T02:04:22.891Z,0.00
2023-07-31T02:05:22.898Z,0.00
2023-07-31T02:06:22.880Z,0.00
2023-07-31T02:07:22.810Z,0.00
2023-07-31T02:08:22.804Z,0.00
2023-07-31T02:09:22.869Z,0.00
2023-07-31T02:10:22.794Z,0.00
2023-07-31T02:11:22.853Z,0.00
2023-07-31T02:12:22.753Z,0.00
2023-07-31T02:13:22.766Z,0.00
2023-07-31T02:14:22.789Z,0.00
2023-07-31T02:15:22.734Z,0.00
2023-07-31T02:16:22.826Z,0.00
2023-07-31T02:17:22.784Z,0.00
2023-07-31T02:18:22.695Z,0.00
2023-07-31T02:19:22.704Z,0.00
2023-07-31T02:20:22.662Z,0.00
2023-07-31T02:21:22.731Z,0.00
2023-07-31T02:22:22.715Z,0.00
2023-07-31T02:23:22.693Z,0.00
2023-07-31T02:24:22.661Z,0.00
2023-07-31T02:25:22.653Z,0.00
2023-07-31T02:26:22.602Z,0.00
2023-07-31T02:27:22.648Z,0.00
2023-07-31T02:28:22.711Z,0.00
2023-07-31T02:29:22.573Z,0.00
2023-07-31T02:30:22.615Z,0.00
2023-07-31T02:31:23.394Z,0.00
2023-07-31T02:32:22.635Z,0.00
2023-07-31T02:33:22.562Z,0.00
2023-07-31T02:34:22.571Z,0.00
2023-07-31T02:35:22.578Z,0.00
2023-07-31T02:36:22.512Z,0.00
2023-07-31T02:37:22.490Z,0.00
2023-07-31T02:38:22.511Z,0.00
2023-07-31T02:39:22.509Z,0.00
2023-07-31T02:40:22.511Z,0.00
2023-07-31T02:41:22.454Z,0.00
2023-07-31T02:42:22.457Z,0.00
2023-07-31T02:43:22.428Z,0.00
2023-07-31T02:44:22.496Z,0.00
2023-07-31T02:45:22.433Z,0.00
2023-07-31T02:46:22.484Z,0.00
2023-07-31T02:47:22.395Z,0.00
2023-07-31T02:48:22.381Z,0.00
2023-07-31T02:49:22.371Z,0.00
2023-07-31T02:50:22.356Z,0.00
2023-07-31T02:51:22.410Z,1.00
2023-07-31T02:52:22.350Z,0.00
2023-07-31T02:53:22.315Z,1.00
2023-07-31T02:54:22.309Z,1.00
2023-07-31T02:55:22.284Z,1.00
2023-07-31T02:56:22.370Z,1.00
2023-07-31T02:57:22.304Z,2.00
2023-07-31T02:58:22.230Z,2.00
2023-07-31T02:59:22.276Z,2.00
2023-07-31T03:00:22.259Z,3.00
2023-07-31T03:01:22.321Z,1.00
2023-07-31T03:02:22.330Z,2.00
2023-07-31T03:03:22.305Z,2.00
2023-07-31T03:04:22.167Z,2.00
2023-07-31T03:05:22.143Z,5.00
2023-07-31T03:06:22.148Z,6.00
2023-07-31T03:07:22.151Z,4.00
2023-07-31T03:08:22.135Z,7.00
2023-07-31T03:09:22.165Z,9.00
2023-07-31T03:10:22.098Z,10.00
2023-07-31T03:11:22.110Z,9.00
2023-07-31T03:12:22.086Z,10.00
2023-07-31T03:13:22.081Z,8.00
2023-07-31T03:14:22.052Z,15.00
2023-07-31T03:15:22.085Z,14.00
2023-07-31T03:16:22.186Z,16.00
2023-07-31T03:17:22.038Z,17.00
2023-07-31T03:18:22.096Z,18.00
2023-07-31T03:19:22.026Z,22.00
2023-07-31T03:20:22.031Z,30.00
2023-07-31T03:21:22.013Z,34.00
2023-07-31T03:22:21.950Z,38.00
2023-07-31T03:23:21.991Z,39.00
2023-07-31T03:24:22.025Z,45.00
2023-07-31T03:25:21.976Z,50.00
2023-07-31T03:26:21.994Z,56.00
2023-07-31T03:27:21.969Z,55.00
2023-07-31T03:28:21.944Z,62.00
2023-07-31T03:29:24.571Z,68.00
2023-07-31T03:30:21.894Z,78.00
2023-07-31T03:31:21.942Z,95.00
2023-07-31T03:32:21.962Z,109.00
2023-07-31T03:33:21.867Z,125.00
2023-07-31T03:34:21.937Z,140.00
2023-07-31T03:35:21.867Z,152.00
2023-07-31T03:36:21.855Z,158.00
2023-07-31T03:37:21.810Z,165.00
2023-07-31T03:38:21.850Z,178.00
2023-07-31T03:39:21.847Z,193.00
2023-07-31T03:40:21.850Z,199.00
2023-07-31T03:41:21.795Z,209.00
2023-07-31T03:42:21.805Z,214.00
2023-07-31T03:43:21.814Z,219.00
2023-07-31T03:44:21.808Z,231.00
2023-07-31T03:45:21.764Z,244.00
2023-07-31T03:46:21.786Z,254.00
2023-07-31T03:47:21.754Z,270.00
2023-07-31T03:48:21.746Z,274.00
2023-07-31T03:49:21.735Z,281.00
2023-07-31T03:50:21.729Z,295.00
2023-07-31T03:51:21.802Z,314.00
2023-07-31T03:52:21.728Z,327.00
2023-07-31T03:53:21.652Z,328.00
2023-07-31T03:54:21.666Z,315.00
2023-07-31T03:55:21.663Z,313.00
2023-07-31T03:56:21.621Z,315.00
2023-07-31T03:57:21.639Z,324.00
2023-07-31T03:58:21.660Z,334.00
2023-07-31T03:59:21.582Z,353.00
2023-07-31T04:00:21.620Z,363.00
2023-07-31T04:01:21.632Z,372.00
2023-07-31T04:02:21.632Z,379.00
2023-07-31T04:03:21.566Z,384.00
2023-07-31T04:04:21.534Z,386.00
2023-07-31T04:05:21.557Z,389.00
2023-07-31T04:06:21.616Z,391.00
2023-07-31T04:07:21.599Z,398.00
2023-07-31T04:08:21.519Z,421.00
2023-07-31T04:09:21.482Z,448.00
2023-07-31T04:10:21.468Z,468.00
2023-07-31T04:11:21.487Z,492.00
2023-07-31T04:12:21.518Z,513.00
2023-07-31T04:13:21.489Z,537.00
2023-07-31T04:14:21.478Z,567.00
2023-07-31T04:15:21.420Z,593.00
2023-07-31T04:16:21.549Z,612.00
2023-07-31T04:17:21.371Z,630.00
2023-07-31T04:18:21.499Z,641.00
2023-07-31T04:19:21.517Z,657.00
2023-07-31T04:20:21.355Z,682.00
2023-07-31T04:21:21.418Z,710.00
2023-07-31T04:22:21.448Z,743.00
2023-07-31T04:23:21.338Z,773.00
2023-07-31T04:24:21.335Z,789.00
2023-07-31T04:25:21.361Z,850.00
2023-07-31T04:26:21.370Z,914.00
2023-07-31T04:27:21.345Z,945.00
2023-07-31T04:28:21.425Z,921.00
2023-07-31T04:29:21.398Z,850.00
2023-07-31T04:30:21.345Z,797.00
2023-07-31T04:31:21.322Z,792.00
2023-07-31T04:32:21.342Z,841.00
2023-07-31T04:33:21.219Z,890.00
2023-07-31T04:34:21.232Z,924.00
2023-07-31T04:35:21.291Z,938.00
2023-07-31T04:36:21.208Z,932.00
2023-07-31T04:37:21.240Z,911.00
2023-07-31T04:38:21.238Z,887.00
2023-07-31T04:39:21.226Z,858.00
2023-07-31T04:40:21.216Z,852.00
2023-07-31T04:41:21.178Z,867.00
2023-07-31T04:42:21.390Z,914.00
2023-07-31T04:43:21.176Z,933.00
2023-07-31T04:44:21.252Z,918.00
2023-07-31T04:45:21.116Z,910.00
2023-07-31T04:46:21.156Z,933.00
2023-07-31T04:47:21.172Z,924.00
2023-07-31T04:48:21.101Z,858.00
2023-07-31T04:49:21.193Z,771.00
2023-07-31T04:50:21.079Z,735.00
2023-07-31T04:51:21.055Z,737.00
2023-07-31T04:52:21.082Z,767.00
2023-07-31T04:53:21.064Z,834.00
2023-07-31T04:54:21.044Z,841.00
2023-07-31T04:55:21.144Z,833.00
2023-07-31T04:56:21.024Z,871.00
2023-07-31T04:57:20.987Z,929.00
2023-07-31T04:58:21.012Z,979.00
2023-07-31T04:59:20.971Z,1028.00
2023-07-31T05:00:21.046Z,1094.00
2023-07-31T05:01:20.987Z,1149.00
2023-07-31T05:02:20.948Z,1193.00
2023-07-31T05:03:21.016Z,1226.00
2023-07-31T05:04:21.014Z,1273.00
2023-07-31T05:05:20.989Z,1338.00
2023-07-31T05:06:21.013Z,1394.00
2023-07-31T05:07:20.933Z,1455.00
2023-07-31T05:08:20.905Z,1514.00
2023-07-31T05:09:21.300Z,1581.00
2023-07-31T05:10:20.952Z,1659.00
2023-07-31T05:11:20.892Z,1731.00
2023-07-31T05:12:20.871Z,1806.00
2023-07-31T05:13:20.818Z,1888.00
2023-07-31T05:14:20.904Z,1978.00
2023-07-31T05:15:20.799Z,2080.00
2023-07-31T05:16:20.890Z,2190.00
2023-07-31T05:17:20.821Z,2292.00
2023-07-31T05:18:20.794Z,2382.00
2023-07-31T05:19:20.797Z,2489.00
2023-07-31T05:20:20.777Z,2545.00
2023-07-31T05:21:20.770Z,2549.00
2023-07-31T05:22:20.732Z,2519.00
2023-07-31T05:23:20.743Z,2471.00
2023-07-31T05:24:20.745Z,2429.00
2023-07-31T05:25:20.675Z,2396.00
2023-07-31T05:26:20.680Z,2423.00
2023-07-31T05:27:20.646Z,2470.00
2023-07-31T05:28:20.701Z,2528.00
2023-07-31T05:29:20.682Z,2561.00
2023-07-31T05:30:20.652Z,2524.00
2023-07-31T05:31:20.633Z,2404.00
2023-07-31T05:32:20.754Z,2283.00
2023-07-31T05:33:20.656Z,2190.00
2023-07-31T05:34:20.643Z,2124.00
2023-07-31T05:35:20.666Z,2128.00
2023-07-31T05:36:20.595Z,2185.00
2023-07-31T05:37:20.601Z,2194.00
2023-07-31T05:38:20.627Z,2167.00
2023-07-31T05:39:20.571Z,2150.00
2023-07-31T05:40:20.612Z,2121.00
2023-07-31T05:41:20.515Z,2015.00
2023-07-31T05:42:20.548Z,1879.00
2023-07-31T05:43:20.573Z,1788.00
2023-07-31T05:44:20.557Z,1739.00
2023-07-31T05:45:20.506Z,1630.00
2023-07-31T05:46:20.526Z,1547.00
2023-07-31T05:47:20.542Z,1498.00
2023-07-31T05:48:20.503Z,1496.00
2023-07-31T05:49:20.498Z,1521.00
2023-07-31T05:50:20.426Z,1544.00
2023-07-31T05:51:20.402Z,1563.00
2023-07-31T05:52:20.391Z,1600.00
2023-07-31T05:53:20.470Z,1681.00
2023-07-31T05:54:20.394Z,1803.00
2023-07-31T05:55:20.488Z,1946.00
2023-07-31T05:56:20.382Z,2087.00
2023-07-31T05:57:20.351Z,2198.00
2023-07-31T05:58:20.347Z,2270.00
2023-07-31T05:59:20.393Z,2300.00
2023-07-31T06:00:20.343Z,2310.00
2023-07-31T06:01:20.306Z,2316.00
2023-07-31T06:02:20.343Z,2353.00
2023-07-31T06:03:20.303Z,2410.00
2023-07-31T06:04:22.258Z,2487.00
2023-07-31T06:05:20.251Z,2555.00
2023-07-31T06:06:20.274Z,2611.00
2023-07-31T06:07:20.364Z,2663.00
2023-07-31T06:08:20.309Z,2693.00
2023-07-31T06:09:20.230Z,2699.00
2023-07-31T06:10:20.270Z,2701.00
2023-07-31T06:11:20.217Z,2691.00
2023-07-31T06:12:20.245Z,2672.00
2023-07-31T06:13:20.297Z,2671.00
2023-07-31T06:14:20.242Z,2687.00
2023-07-31T06:15:20.185Z,2678.00
2023-07-31T06:16:20.199Z,2712.00
2023-07-31T06:17:21.075Z,2766.00
2023-07-31T06:18:20.168Z,2821.00
2023-07-31T06:19:20.220Z,2871.00
2023-07-31T06:20:20.217Z,2930.00
2023-07-31T06:21:20.112Z,3029.00
2023-07-31T06:22:20.133Z,3155.00
2023-07-31T06:23:20.144Z,3259.00
2023-07-31T06:24:20.199Z,3197.00
2023-07-31T06:25:20.114Z,3334.00
2023-07-31T06:26:20.166Z,3299.00
2023-07-31T06:27:20.086Z,3348.00
2023-07-31T06:28:20.131Z,3528.00
2023-07-31T06:29:20.091Z,3679.00
2023-07-31T06:30:20.069Z,3140.00
2023-07-31T06:31:20.150Z,2990.00
2023-07-31T06:32:20.062Z,2452.00
2023-07-31T06:33:19.975Z,2995.00
2023-07-31T06:34:20.014Z,2761.00
2023-07-31T06:35:19.958Z,2960.00
2023-07-31T06:36:19.982Z,3168.00
2023-07-31T06:37:20.160Z,3123.00
2023-07-31T06:38:20.001Z,3213.00
2023-07-31T06:39:19.953Z,3399.00
2023-07-31T06:40:19.934Z,3214.00
2023-07-31T06:41:20.008Z,2972.00
2023-07-31T06:42:19.904Z,3461.00
2023-07-31T06:43:19.916Z,3470.00
2023-07-31T06:44:19.932Z,3164.00
2023-07-31T06:45:19.952Z,3622.00
2023-07-31T06:46:19.941Z,3712.00
2023-07-31T06:47:19.848Z,3143.00
2023-07-31T06:48:19.901Z,3009.00
2023-07-31T06:49:19.848Z,3729.00
2023-07-31T06:50:19.835Z,3213.00
2023-07-31T06:51:19.837Z,3769.00
2023-07-31T06:52:19.806Z,3414.00
2023-07-31T06:53:19.827Z,3602.00
2023-07-31T06:54:19.849Z,3621.00
2023-07-31T06:55:19.782Z,3292.00
2023-07-31T06:56:19.720Z,2952.00
2023-07-31T06:57:19.729Z,3214.00
2023-07-31T06:58:19.746Z,3512.00
2023-07-31T06:59:19.750Z,3277.00
2023-07-31T07:00:19.735Z,3824.00
2023-07-31T07:01:19.898Z,3983.00
2023-07-31T07:02:19.703Z,3687.00
2023-07-31T07:03:19.705Z,3511.00
2023-07-31T07:04:19.662Z,3040.00
2023-07-31T07:05:19.772Z,3269.00
2023-07-31T07:06:19.662Z,4579.00
2023-07-31T07:07:19.621Z,4869.00
2023-07-31T07:08:19.696Z,3843.00
2023-07-31T07:09:19.597Z,3293.00
2023-07-31T07:10:19.624Z,2907.00
2023-07-31T07:11:20.372Z,2907.00
2023-07-31T07:12:19.625Z,2573.00
2023-07-31T07:13:19.755Z,2163.00
2023-07-31T07:14:19.565Z,2557.00
2023-07-31T07:15:19.634Z,3202.00
2023-07-31T07:16:19.640Z,2489.00
2023-07-31T07:17:19.683Z,2739.00
2023-07-31T07:18:19.512Z,2407.00
2023-07-31T07:19:19.515Z,1783.00
2023-07-31T07:20:19.472Z,1723.00
2023-07-31T07:21:19.557Z,1496.00
2023-07-31T07:22:19.867Z,1628.00
2023-07-31T07:23:19.473Z,1451.00
2023-07-31T07:24:19.464Z,1904.00
2023-07-31T07:25:19.427Z,1888.00
2023-07-31T07:26:20.175Z,2619.00
2023-07-31T07:27:19.455Z,2957.00
2023-07-31T07:28:19.425Z,3341.00
2023-07-31T07:29:19.398Z,3396.00
2023-07-31T07:30:19.455Z,3499.00
2023-07-31T07:31:19.507Z,5567.00
2023-07-31T07:32:19.433Z,7177.00
2023-07-31T07:33:19.442Z,8219.00
2023-07-31T07:34:19.401Z,8286.00
2023-07-31T07:35:19.347Z,5951.00
2023-07-31T07:36:19.350Z,5029.00
2023-07-31T07:37:19.275Z,4665.00
2023-07-31T07:38:19.307Z,4551.00
2023-07-31T07:39:19.558Z,4220.00
2023-07-31T07:40:19.280Z,4500.00
2023-07-31T07:41:19.305Z,4597.00
2023-07-31T07:42:19.296Z,4439.00
2023-07-31T07:43:19.291Z,4211.00
2023-07-31T07:44:19.204Z,4424.00
2023-07-31T07:45:19.368Z,5456.00
2023-07-31T07:46:19.248Z,4649.00
2023-07-31T07:47:19.226Z,4327.00
2023-07-31T07:48:19.334Z,4875.00
2023-07-31T07:49:19.177Z,4467.00
2023-07-31T07:50:19.229Z,4072.00
2023-07-31T07:51:19.214Z,3585.00
2023-07-31T07:52:19.169Z,4595.00
2023-07-31T07:53:19.135Z,5000.00
2023-07-31T07:54:19.219Z,5469.00
2023-07-31T07:55:19.145Z,6379.00
2023-07-31T07:56:19.298Z,4725.00
2023-07-31T07:57:19.096Z,5853.00
2023-07-31T07:58:19.120Z,5132.00
2023-07-31T07:59:19.075Z,5143.00
2023-07-31T08:00:19.123Z,4669.00
2023-07-31T08:01:19.198Z,3307.00
2023-07-31T08:02:19.085Z,3212.00
2023-07-31T08:03:19.248Z,3119.00
2023-07-31T08:04:19.126Z,2456.00
2023-07-31T08:05:19.027Z,2001.00
2023-07-31T08:06:19.018Z,2658.00
2023-07-31T08:07:19.017Z,4596.00
2023-07-31T08:08:19.031Z,3952.00
2023-07-31T08:09:19.046Z,3845.00
2023-07-31T08:10:18.949Z,4777.00
2023-07-31T08:11:19.004Z,4398.00
2023-07-31T08:12:18.982Z,5800.00
2023-07-31T08:13:18.992Z,6170.00
2023-07-31T08:14:18.950Z,6036.00
2023-07-31T08:15:18.982Z,4848.00
2023-07-31T08:16:18.932Z,3876.00
2023-07-31T08:17:18.981Z,3277.00
2023-07-31T08:18:19.016Z,2978.00
2023-07-31T08:19:18.989Z,2605.00
2023-07-31T08:20:18.888Z,3529.00
2023-07-31T08:21:18.892Z,3789.00
2023-07-31T08:22:18.846Z,3601.00
2023-07-31T08:23:18.854Z,2483.00
2023-07-31T08:24:18.879Z,1844.00
2023-07-31T08:25:18.859Z,3212.00
2023-07-31T08:26:18.773Z,3699.00
2023-07-31T08:27:18.870Z,3568.00
2023-07-31T08:28:18.959Z,3849.00
2023-07-31T08:29:18.871Z,3484.00
2023-07-31T08:30:22.004Z,6667.00
2023-07-31T08:31:18.902Z,7455.00
2023-07-31T08:32:18.717Z,6236.00
2023-07-31T08:33:18.729Z,4507.00
2023-07-31T08:34:18.814Z,4268.00
2023-07-31T08:35:18.733Z,4952.00
2023-07-31T08:36:18.749Z,5192.00
2023-07-31T08:37:18.713Z,3952.00
2023-07-31T08:38:18.720Z,3206.00
2023-07-31T08:39:18.713Z,5273.00
2023-07-31T08:40:18.764Z,5109.00
2023-07-31T08:41:18.619Z,4252.00
2023-07-31T08:42:18.688Z,3042.00
2023-07-31T08:43:18.648Z,4532.00
2023-07-31T08:44:18.670Z,5821.00
2023-07-31T08:45:18.644Z,5225.00
2023-07-31T08:46:18.721Z,4687.00
2023-07-31T08:47:18.796Z,3502.00
2023-07-31T08:48:18.628Z,5011.00
2023-07-31T08:49:18.611Z,5218.00
2023-07-31T08:50:18.625Z,4579.00
2023-07-31T08:51:18.587Z,3508.00
2023-07-31T08:52:18.592Z,4338.00
2023-07-31T08:53:18.543Z,4503.00
2023-07-31T08:54:18.580Z,4526.00
2023-07-31T08:55:18.507Z,4674.00
2023-07-31T08:56:18.547Z,5130.00
2023-07-31T08:57:18.506Z,6967.00
2023-07-31T08:58:18.578Z,6102.00
2023-07-31T08:59:18.450Z,4554.00
2023-07-31T09:00:18.567Z,3480.00
2023-07-31T09:01:18.496Z,4227.00
2023-07-31T09:02:18.576Z,7392.00
2023-07-31T09:03:18.529Z,6815.00
2023-07-31T09:04:18.528Z,7428.00
2023-07-31T09:05:18.419Z,7546.00
2023-07-31T09:06:18.495Z,7177.00
2023-07-31T09:07:18.376Z,7580.00
2023-07-31T09:08:18.329Z,7007.00
2023-07-31T09:09:18.390Z,6377.00
2023-07-31T09:10:18.617Z,5579.00
2023-07-31T09:11:18.340Z,4612.00
2023-07-31T09:12:18.335Z,4645.00
2023-07-31T09:13:18.317Z,5149.00
2023-07-31T09:14:18.320Z,6912.00
2023-07-31T09:15:31.479Z,9806.00
2023-07-31T09:16:19.383Z,8329.00
2023-07-31T09:17:18.298Z,4875.00
2023-07-31T09:18:18.256Z,8041.00
2023-07-31T09:19:18.256Z,9558.00
2023-07-31T09:20:18.368Z,6822.00
2023-07-31T09:21:18.339Z,4564.00
2023-07-31T09:22:18.201Z,3095.00
2023-07-31T09:23:18.248Z,3014.00
2023-07-31T09:24:18.285Z,2644.00
2023-07-31T09:25:18.223Z,3298.00
2023-07-31T09:26:18.233Z,4649.00
2023-07-31T09:27:18.226Z,4725.00
2023-07-31T09:28:18.219Z,3813.00
2023-07-31T09:29:18.239Z,3951.00
2023-07-31T09:30:18.245Z,3683.00
2023-07-31T09:31:18.147Z,4774.00
2023-07-31T09:32:18.159Z,4225.00
2023-07-31T09:33:18.116Z,4698.00
2023-07-31T09:34:18.135Z,4966.00
2023-07-31T09:35:18.112Z,4013.00
2023-07-31T09:36:18.091Z,3433.00
2023-07-31T09:37:18.138Z,2573.00
2023-07-31T09:38:18.078Z,2663.00
2023-07-31T09:39:18.174Z,2050.00
2023-07-31T09:40:18.035Z,1733.00
2023-07-31T09:41:18.043Z,1696.00
2023-07-31T09:42:18.001Z,1403.00
2023-07-31T09:43:18.025Z,1455.00
2023-07-31T09:44:18.033Z,1998.00
2023-07-31T09:45:21.774Z,2472.00
2023-07-31T09:46:19.028Z,2549.00
2023-07-31T09:47:17.941Z,2810.00
2023-07-31T09:48:18.029Z,2678.00
2023-07-31T09:49:17.947Z,2868.00
2023-07-31T09:50:17.931Z,3227.00
2023-07-31T09:51:17.920Z,2979.00
2023-07-31T09:52:17.931Z,5281.00
2023-07-31T09:53:18.020Z,5232.00
2023-07-31T09:54:17.880Z,3968.00
2023-07-31T09:55:17.926Z,2689.00
2023-07-31T09:56:17.889Z,3845.00
2023-07-31T09:57:17.813Z,4359.00
2023-07-31T09:58:17.850Z,3696.00
2023-07-31T09:59:19.172Z,3843.00
2023-07-31T10:00:17.824Z,3851.00
2023-07-31T10:01:17.849Z,2694.00
2023-07-31T10:02:18.043Z,2728.00
2023-07-31T10:03:17.890Z,5163.00
2023-07-31T10:04:17.801Z,6250.00
2023-07-31T10:05:17.742Z,6731.00
2023-07-31T10:06:17.766Z,6207.00
2023-07-31T10:07:17.742Z,4725.00
2023-07-31T10:08:17.746Z,3726.00
2023-07-31T10:09:17.760Z,3997.00
2023-07-31T10:10:17.703Z,3777.00
2023-07-31T10:11:17.756Z,4771.00
2023-07-31T10:12:17.706Z,6300.00
2023-07-31T10:13:17.690Z,6378.00
2023-07-31T10:14:17.769Z,7090.00
2023-07-31T10:15:17.786Z,6415.00
2023-07-31T10:16:17.744Z,7796.00
2023-07-31T10:17:17.655Z,7310.00
2023-07-31T10:18:17.616Z,5889.00
2023-07-31T10:19:17.612Z,4758.00
2023-07-31T10:20:17.661Z,5120.00
2023-07-31T10:21:17.643Z,4169.00
2023-07-31T10:22:17.588Z,3164.00
2023-07-31T10:23:17.596Z,5065.00
2023-07-31T10:24:17.579Z,3711.00
2023-07-31T10:25:17.584Z,4633.00
2023-07-31T10:26:17.558Z,4427.00
2023-07-31T10:27:17.633Z,3236.00
2023-07-31T10:28:17.558Z,2699.00
2023-07-31T10:29:17.548Z,2714.00
2023-07-31T10:30:20.026Z,2915.00
2023-07-31T10:31:17.575Z,1931.00
2023-07-31T10:32:17.570Z,1784.00
2023-07-31T10:33:17.536Z,2574.00
2023-07-31T10:34:17.783Z,5053.00
2023-07-31T10:35:17.587Z,5686.00
2023-07-31T10:36:17.477Z,3416.00
2023-07-31T10:37:17.510Z,4741.00
2023-07-31T10:38:17.433Z,5992.00
2023-07-31T10:39:17.408Z,6525.00
2023-07-31T10:40:17.442Z,8004.00
2023-07-31T10:41:17.404Z,8387.00
2023-07-31T10:42:17.376Z,7926.00
2023-07-31T10:43:17.360Z,6758.00
2023-07-31T10:44:17.486Z,6559.00
2023-07-31T10:45:17.353Z,7606.00
2023-07-31T10:46:17.418Z,7721.00
2023-07-31T10:47:17.356Z,7004.00
2023-07-31T10:48:17.325Z,6427.00
2023-07-31T10:49:17.300Z,6141.00
2023-07-31T10:50:17.444Z,6377.00
2023-07-31T10:51:17.362Z,8415.00
2023-07-31T10:52:17.263Z,9763.00
2023-07-31T10:53:17.277Z,11288.00
2023-07-31T10:54:17.238Z,13276.00
2023-07-31T10:55:17.232Z,10911.00
2023-07-31T10:56:17.248Z,13690.00
2023-07-31T10:57:17.272Z,14428.00
2023-07-31T10:58:17.194Z,13216.00
2023-07-31T10:59:17.206Z,11484.00
2023-07-31T11:00:17.185Z,10269.00
2023-07-31T11:01:17.222Z,10042.00
2023-07-31T11:02:17.174Z,10341.00
2023-07-31T11:03:17.250Z,9937.00
2023-07-31T11:04:17.143Z,9766.00
2023-07-31T11:05:17.147Z,6599.00
2023-07-31T11:06:18.908Z,8036.00
2023-07-31T11:07:17.117Z,10434.00
2023-07-31T11:08:17.224Z,9483.00
2023-07-31T11:09:17.151Z,10590.00
2023-07-31T11:10:17.075Z,10830.00
2023-07-31T11:11:17.138Z,9666.00
2023-07-31T11:12:17.072Z,8926.00
2023-07-31T11:13:17.117Z,8219.00
2023-07-31T11:14:17.114Z,5853.00
2023-07-31T11:15:17.038Z,4814.00
2023-07-31T11:16:17.087Z,6285.00
2023-07-31T11:17:17.051Z,6039.00
2023-07-31T11:18:17.137Z,5793.00
2023-07-31T11:19:17.009Z,3637.00
2023-07-31T11:20:16.970Z,4064.00
2023-07-31T11:21:17.001Z,4509.00
2023-07-31T11:22:17.033Z,4108.00
2023-07-31T11:23:16.922Z,3118.00
2023-07-31T11:24:16.969Z,5365.00
2023-07-31T11:25:17.027Z,1783.00
2023-07-31T11:26:16.952Z,8890.00
2023-07-31T11:27:16.903Z,7091.00
2023-07-31T11:28:17.037Z,5981.00
2023-07-31T11:29:16.921Z,5339.00
2023-07-31T11:30:16.863Z,6270.00
2023-07-31T11:31:16.891Z,5324.00
2023-07-31T11:32:16.914Z,6790.00
2023-07-31T11:33:16.902Z,4498.00
2023-07-31T11:34:16.821Z,3337.00
2023-07-31T11:35:16.855Z,3164.00
2023-07-31T11:36:16.835Z,3553.00
2023-07-31T11:37:16.861Z,5710.00
2023-07-31T11:38:16.985Z,6553.00
2023-07-31T11:39:16.860Z,5469.00
2023-07-31T11:40:16.785Z,4247.00
2023-07-31T11:41:16.803Z,4944.00
2023-07-31T11:42:16.821Z,4200.00
2023-07-31T11:43:16.729Z,4895.00
2023-07-31T11:44:27.785Z,3928.00
2023-07-31T11:45:17.770Z,3236.00
2023-07-31T11:46:16.909Z,2498.00
2023-07-31T11:47:16.727Z,2719.00
2023-07-31T11:48:16.820Z,2994.00
2023-07-31T11:49:16.665Z,4230.00
2023-07-31T11:50:16.694Z,5003.00
2023-07-31T11:51:16.679Z,4391.00
2023-07-31T11:52:16.739Z,5026.00
2023-07-31T11:53:16.637Z,6394.00
2023-07-31T11:54:16.664Z,7335.00
2023-07-31T11:55:16.640Z,7297.00
2023-07-31T11:56:16.741Z,6071.00
2023-07-31T11:57:16.609Z,4420.00
2023-07-31T11:58:16.584Z,3781.00
2023-07-31T11:59:16.590Z,5333.00
2023-07-31T12:00:16.639Z,6438.00
2023-07-31T12:01:18.026Z,5436.00
2023-07-31T12:02:16.642Z,4455.00
2023-07-31T12:03:16.588Z,4767.00
2023-07-31T12:04:16.568Z,4897.00
2023-07-31T12:05:16.517Z,4826.00
2023-07-31T12:06:16.538Z,4457.00
2023-07-31T12:07:16.504Z,3992.00
2023-07-31T12:08:16.480Z,3839.00
2023-07-31T12:09:16.475Z,3348.00
2023-07-31T12:10:16.546Z,2947.00
2023-07-31T12:11:16.488Z,2817.00
2023-07-31T12:12:16.466Z,2575.00
2023-07-31T12:13:16.489Z,2643.00
2023-07-31T12:14:16.414Z,2910.00
2023-07-31T12:15:16.497Z,2356.00
2023-07-31T12:16:16.453Z,3480.00
2023-07-31T12:17:16.392Z,5562.00
2023-07-31T12:18:16.412Z,5570.00
2023-07-31T12:19:16.415Z,6738.00
2023-07-31T12:20:16.377Z,7124.00
2023-07-31T12:21:16.370Z,6832.00
2023-07-31T12:22:16.370Z,7276.00
2023-07-31T12:23:16.373Z,7637.00
2023-07-31T12:24:16.322Z,7289.00
2023-07-31T12:25:16.349Z,6992.00
2023-07-31T12:26:16.321Z,6240.00